sensor_id;sensor_type;location;lat;lon;timestamp;temperature;humidity
10417;DHT22;62605;49.432;8.680;2022-11-21T00:01:16;7.00;99.90
10417;DHT22;62605;49.432;8.680;2022-11-21T00:03:44;7.00;1.00
10417;DHT22;62605;49.432;8.680;2022-11-21T00:06:11;7.10;1.00
10417;DHT22;62605;49.432;8.680;2022-11-21T00:08:38;7.00;1.00
10417;DHT22;62605;49.432;8.680;2022-11-21T00:11:06;7.00;1.00
10417;DHT22;62605;49.432;8.680;2022-11-21T00:13:33;7.10;1.00
10417;DHT22;62605;49.432;8.680;2022-11-21T00:16:06;7.10;1.00
10417;DHT22;62605;49.432;8.680;2022-11-21T00:18:34;7.10;99.90
10417;DHT22;62605;49.432;8.680;2022-11-21T00:21:05;7.10;99.90
10417;DHT22;62605;49.432;8.680;2022-11-21T00:23:33;7.10;1.00
10417;DHT22;62605;49.432;8.680;2022-11-21T00:26:03;7.10;99.90
10417;DHT22;62605;49.432;8.680;2022-11-21T00:28:30;7.10;1.00
10417;DHT22;62605;49.432;8.680;2022-11-21T00:30:58;7.10;1.00
10417;DHT22;62605;49.432;8.680;2022-11-21T00:33:26;7.00;1.00
10417;DHT22;62605;49.432;8.680;2022-11-21T00:35:54;7.10;1.00
10417;DHT22;62605;49.432;8.680;2022-11-21T00:38:21;7.00;1.00
10417;DHT22;62605;49.432;8.680;2022-11-21T00:40:49;7.00;1.00
10417;DHT22;62605;49.432;8.680;2022-11-21T00:43:16;7.10;1.00
10417;DHT22;62605;49.432;8.680;2022-11-21T00:45:42;7.00;1.00
10417;DHT22;62605;49.432;8.680;2022-11-21T00:48:09;7.10;1.00
10417;DHT22;62605;49.432;8.680;2022-11-21T00:50:38;7.00;1.00
10417;DHT22;62605;49.432;8.680;2022-11-21T00:53:05;7.00;1.00
10417;DHT22;62605;49.432;8.680;2022-11-21T00:55:32;7.00;1.00
10417;DHT22;62605;49.432;8.680;2022-11-21T00:58:01;7.00;1.00
10417;DHT22;62605;49.432;8.680;2022-11-21T01:00:28;7.00;1.00
10417;DHT22;62605;49.432;8.680;2022-11-21T01:02:55;6.90;1.00
10417;DHT22;62605;49.432;8.680;2022-11-21T01:05:22;6.90;1.00
10417;DHT22;62605;49.432;8.680;2022-11-21T01:07:50;7.10;1.00
10417;DHT22;62605;49.432;8.680;2022-11-21T01:10:17;7.00;1.00
10417;DHT22;62605;49.432;8.680;2022-11-21T01:12:44;7.00;99.90
10417;DHT22;62605;49.432;8.680;2022-11-21T01:15:11;7.00;99.90
10417;DHT22;62605;49.432;8.680;2022-11-21T01:17:40;7.00;99.90
10417;DHT22;62605;49.432;8.680;2022-11-21T01:20:08;7.00;99.90
10417;DHT22;62605;49.432;8.680;2022-11-21T01:22:35;7.00;99.90
10417;DHT22;62605;49.432;8.680;2022-11-21T01:25:05;7.00;99.90
10417;DHT22;62605;49.432;8.680;2022-11-21T01:27:32;7.00;1.00
10417;DHT22;62605;49.432;8.680;2022-11-21T01:30:00;7.00;1.00
10417;DHT22;62605;49.432;8.680;2022-11-21T01:32:27;7.10;99.90
10417;DHT22;62605;49.432;8.680;2022-11-21T01:34:53;7.00;99.90
10417;DHT22;62605;49.432;8.680;2022-11-21T01:37:21;7.00;99.90
10417;DHT22;62605;49.432;8.680;2022-11-21T01:39:48;7.10;1.00
10417;DHT22;62605;49.432;8.680;2022-11-21T01:42:16;7.00;1.00
10417;DHT22;62605;49.432;8.680;2022-11-21T01:44:47;7.10;1.00
10417;DHT22;62605;49.432;8.680;2022-11-21T01:47:15;7.10;99.90
10417;DHT22;62605;49.432;8.680;2022-11-21T01:49:43;7.20;99.90
10417;DHT22;62605;49.432;8.680;2022-11-21T01:52:15;7.10;99.90
10417;DHT22;62605;49.432;8.680;2022-11-21T01:54:46;7.00;1.00
10417;DHT22;62605;49.432;8.680;2022-11-21T01:57:18;7.00;99.90
10417;DHT22;62605;49.432;8.680;2022-11-21T01:59:50;7.10;99.90
10417;DHT22;62605;49.432;8.680;2022-11-21T02:02:22;7.00;99.90
10417;DHT22;62605;49.432;8.680;2022-11-21T02:04:51;7.00;99.90
10417;DHT22;62605;49.432;8.680;2022-11-21T02:07:20;6.90;99.90
10417;DHT22;62605;49.432;8.680;2022-11-21T02:09:51;6.80;1.00
10417;DHT22;62605;49.432;8.680;2022-11-21T02:12:24;7.00;1.00
10417;DHT22;62605;49.432;8.680;2022-11-21T02:14:52;6.90;1.00
10417;DHT22;62605;49.432;8.680;2022-11-21T02:17:21;6.90;1.00
10417;DHT22;62605;49.432;8.680;2022-11-21T02:19:52;7.00;1.00
10417;DHT22;62605;49.432;8.680;2022-11-21T02:22:30;7.00;1.00
10417;DHT22;62605;49.432;8.680;2022-11-21T02:25:05;6.90;1.00
10417;DHT22;62605;49.432;8.680;2022-11-21T02:27:33;6.90;1.00
10417;DHT22;62605;49.432;8.680;2022-11-21T02:30:03;6.90;1.00
10417;DHT22;62605;49.432;8.680;2022-11-21T02:32:32;7.00;1.00
10417;DHT22;62605;49.432;8.680;2022-11-21T02:35:00;7.00;1.00
10417;DHT22;62605;49.432;8.680;2022-11-21T02:37:27;7.00;1.00
10417;DHT22;62605;49.432;8.680;2022-11-21T02:39:56;6.90;1.00
10417;DHT22;62605;49.432;8.680;2022-11-21T02:42:30;6.90;1.00
10417;DHT22;62605;49.432;8.680;2022-11-21T02:45:05;6.90;1.00
10417;DHT22;62605;49.432;8.680;2022-11-21T02:47:35;7.00;1.00
10417;DHT22;62605;49.432;8.680;2022-11-21T02:50:10;7.00;1.00
10417;DHT22;62605;49.432;8.680;2022-11-21T02:52:38;6.90;1.00
10417;DHT22;62605;49.432;8.680;2022-11-21T02:55:06;6.90;1.00
10417;DHT22;62605;49.432;8.680;2022-11-21T02:57:35;7.00;1.00
10417;DHT22;62605;49.432;8.680;2022-11-21T03:00:03;7.00;1.00
10417;DHT22;62605;49.432;8.680;2022-11-21T03:02:30;7.00;1.00
10417;DHT22;62605;49.432;8.680;2022-11-21T03:04:57;7.00;1.00
10417;DHT22;62605;49.432;8.680;2022-11-21T03:07:24;7.00;1.00
10417;DHT22;62605;49.432;8.680;2022-11-21T03:09:51;6.90;1.00
10417;DHT22;62605;49.432;8.680;2022-11-21T03:12:18;6.90;1.00
10417;DHT22;62605;49.432;8.680;2022-11-21T03:14:46;6.90;1.00
10417;DHT22;62605;49.432;8.680;2022-11-21T03:17:13;6.90;1.00
10417;DHT22;62605;49.432;8.680;2022-11-21T03:19:40;6.90;1.00
10417;DHT22;62605;49.432;8.680;2022-11-21T03:22:07;6.90;1.00
10417;DHT22;62605;49.432;8.680;2022-11-21T03:24:34;7.00;1.00
10417;DHT22;62605;49.432;8.680;2022-11-21T03:27:01;7.00;1.00
10417;DHT22;62605;49.432;8.680;2022-11-21T03:29:28;7.00;60.60
10417;DHT22;62605;49.432;8.680;2022-11-21T03:31:57;7.00;86.50
10417;DHT22;62605;49.432;8.680;2022-11-21T03:34:24;7.00;99.90
10417;DHT22;62605;49.432;8.680;2022-11-21T03:36:51;7.10;99.90
10417;DHT22;62605;49.432;8.680;2022-11-21T03:39:19;7.10;99.90
10417;DHT22;62605;49.432;8.680;2022-11-21T03:41:46;7.00;99.90
10417;DHT22;62605;49.432;8.680;2022-11-21T03:44:14;7.00;99.90
10417;DHT22;62605;49.432;8.680;2022-11-21T03:46:42;6.90;99.90
10417;DHT22;62605;49.432;8.680;2022-11-21T03:49:11;7.00;99.90
10417;DHT22;62605;49.432;8.680;2022-11-21T03:51:38;6.90;99.90
10417;DHT22;62605;49.432;8.680;2022-11-21T03:54:06;6.90;99.90
10417;DHT22;62605;49.432;8.680;2022-11-21T03:56:33;6.90;99.90
10417;DHT22;62605;49.432;8.680;2022-11-21T03:59:00;7.00;99.90
10417;DHT22;62605;49.432;8.680;2022-11-21T04:01:27;7.00;99.90
10417;DHT22;62605;49.432;8.680;2022-11-21T04:03:54;7.00;99.90
10417;DHT22;62605;49.432;8.680;2022-11-21T04:06:23;7.00;99.90
10417;DHT22;62605;49.432;8.680;2022-11-21T04:08:50;6.90;99.90
10417;DHT22;62605;49.432;8.680;2022-11-21T04:11:18;6.90;99.90
10417;DHT22;62605;49.432;8.680;2022-11-21T04:13:48;6.90;99.90
10417;DHT22;62605;49.432;8.680;2022-11-21T04:16:14;6.90;99.90
10417;DHT22;62605;49.432;8.680;2022-11-21T04:18:41;6.90;99.90
10417;DHT22;62605;49.432;8.680;2022-11-21T04:21:08;6.80;99.90
10417;DHT22;62605;49.432;8.680;2022-11-21T04:23:37;6.80;99.90
10417;DHT22;62605;49.432;8.680;2022-11-21T04:26:04;6.90;99.90
10417;DHT22;62605;49.432;8.680;2022-11-21T04:28:31;6.90;99.90
10417;DHT22;62605;49.432;8.680;2022-11-21T04:31:01;6.80;99.90
10417;DHT22;62605;49.432;8.680;2022-11-21T04:33:29;6.80;99.90
10417;DHT22;62605;49.432;8.680;2022-11-21T04:35:56;6.90;99.90
10417;DHT22;62605;49.432;8.680;2022-11-21T04:38:23;6.80;99.90
10417;DHT22;62605;49.432;8.680;2022-11-21T04:40:51;6.80;99.90
10417;DHT22;62605;49.432;8.680;2022-11-21T04:43:19;6.70;99.90
10417;DHT22;62605;49.432;8.680;2022-11-21T04:45:46;6.80;99.90
10417;DHT22;62605;49.432;8.680;2022-11-21T04:48:13;6.90;99.90
10417;DHT22;62605;49.432;8.680;2022-11-21T04:50:40;7.00;99.90
10417;DHT22;62605;49.432;8.680;2022-11-21T04:53:07;6.90;99.90
10417;DHT22;62605;49.432;8.680;2022-11-21T04:55:34;6.90;99.90
10417;DHT22;62605;49.432;8.680;2022-11-21T04:58:02;6.80;99.90
10417;DHT22;62605;49.432;8.680;2022-11-21T05:00:30;7.00;99.90
10417;DHT22;62605;49.432;8.680;2022-11-21T05:03:01;6.90;99.90
10417;DHT22;62605;49.432;8.680;2022-11-21T05:05:29;6.80;99.90
10417;DHT22;62605;49.432;8.680;2022-11-21T05:07:56;6.80;99.90
10417;DHT22;62605;49.432;8.680;2022-11-21T05:10:23;6.90;99.90
10417;DHT22;62605;49.432;8.680;2022-11-21T05:12:56;6.90;99.90
10417;DHT22;62605;49.432;8.680;2022-11-21T05:15:42;7.10;99.90
10417;DHT22;62605;49.432;8.680;2022-11-21T05:18:09;7.20;99.90
10417;DHT22;62605;49.432;8.680;2022-11-21T05:20:36;7.20;99.90
10417;DHT22;62605;49.432;8.680;2022-11-21T05:23:03;7.50;35.50
10417;DHT22;62605;49.432;8.680;2022-11-21T05:25:30;7.30;1.00
10417;DHT22;62605;49.432;8.680;2022-11-21T05:27:57;7.10;95.90
10417;DHT22;62605;49.432;8.680;2022-11-21T05:30:24;7.10;99.90
10417;DHT22;62605;49.432;8.680;2022-11-21T05:32:54;7.70;1.00
10417;DHT22;62605;49.432;8.680;2022-11-21T05:35:20;7.50;1.00
10417;DHT22;62605;49.432;8.680;2022-11-21T05:37:53;7.40;1.00
10417;DHT22;62605;49.432;8.680;2022-11-21T05:40:20;7.20;55.10
10417;DHT22;62605;49.432;8.680;2022-11-21T05:42:47;7.00;99.90
10417;DHT22;62605;49.432;8.680;2022-11-21T05:45:32;7.00;99.90
10417;DHT22;62605;49.432;8.680;2022-11-21T05:48:00;7.00;99.90
10417;DHT22;62605;49.432;8.680;2022-11-21T05:50:32;6.90;99.90
10417;DHT22;62605;49.432;8.680;2022-11-21T05:53:00;6.90;99.90
10417;DHT22;62605;49.432;8.680;2022-11-21T05:55:28;7.10;99.90
10417;DHT22;62605;49.432;8.680;2022-11-21T05:57:57;7.30;99.90
10417;DHT22;62605;49.432;8.680;2022-11-21T06:00:25;7.20;42.20
10417;DHT22;62605;49.432;8.680;2022-11-21T06:02:52;7.10;99.90
10417;DHT22;62605;49.432;8.680;2022-11-21T06:05:38;7.30;99.90
10417;DHT22;62605;49.432;8.680;2022-11-21T06:08:05;7.20;91.70
10417;DHT22;62605;49.432;8.680;2022-11-21T06:10:32;7.10;99.90
10417;DHT22;62605;49.432;8.680;2022-11-21T06:12:59;7.10;99.90
10417;DHT22;62605;49.432;8.680;2022-11-21T06:15:27;7.20;99.90
10417;DHT22;62605;49.432;8.680;2022-11-21T06:17:54;7.20;99.90
10417;DHT22;62605;49.432;8.680;2022-11-21T06:20:24;7.40;64.50
10417;DHT22;62605;49.432;8.680;2022-11-21T06:22:54;7.50;1.00
10417;DHT22;62605;49.432;8.680;2022-11-21T06:25:21;7.40;1.00
10417;DHT22;62605;49.432;8.680;2022-11-21T06:27:49;7.50;1.00
10417;DHT22;62605;49.432;8.680;2022-11-21T06:30:17;7.30;45.80
10417;DHT22;62605;49.432;8.680;2022-11-21T06:32:45;7.20;1.00
10417;DHT22;62605;49.432;8.680;2022-11-21T06:35:12;7.00;7.20
10417;DHT22;62605;49.432;8.680;2022-11-21T06:37:41;7.10;99.90
10417;DHT22;62605;49.432;8.680;2022-11-21T06:40:14;7.40;99.90
10417;DHT22;62605;49.432;8.680;2022-11-21T06:42:42;7.30;1.00
10417;DHT22;62605;49.432;8.680;2022-11-21T06:45:10;7.50;1.00
10417;DHT22;62605;49.432;8.680;2022-11-21T06:47:37;7.40;1.00
10417;DHT22;62605;49.432;8.680;2022-11-21T06:50:06;7.30;1.00
10417;DHT22;62605;49.432;8.680;2022-11-21T06:52:33;7.20;1.00
10417;DHT22;62605;49.432;8.680;2022-11-21T06:55:03;7.10;94.10
10417;DHT22;62605;49.432;8.680;2022-11-21T06:57:32;7.30;10.60
10417;DHT22;62605;49.432;8.680;2022-11-21T06:59:59;7.30;99.90
10417;DHT22;62605;49.432;8.680;2022-11-21T07:02:27;7.10;1.00
10417;DHT22;62605;49.432;8.680;2022-11-21T07:04:54;7.10;99.90
10417;DHT22;62605;49.432;8.680;2022-11-21T07:07:21;7.40;99.90
10417;DHT22;62605;49.432;8.680;2022-11-21T07:09:50;7.20;99.90
10417;DHT22;62605;49.432;8.680;2022-11-21T07:12:17;7.00;99.90
10417;DHT22;62605;49.432;8.680;2022-11-21T07:15:04;7.00;99.90
10417;DHT22;62605;49.432;8.680;2022-11-21T07:17:32;7.00;99.90
10417;DHT22;62605;49.432;8.680;2022-11-21T07:19:59;7.20;86.40
10417;DHT22;62605;49.432;8.680;2022-11-21T07:22:26;7.10;99.90
10417;DHT22;62605;49.432;8.680;2022-11-21T07:24:54;7.10;99.90
10417;DHT22;62605;49.432;8.680;2022-11-21T07:27:21;7.40;99.90
10417;DHT22;62605;49.432;8.680;2022-11-21T07:29:48;7.30;1.00
10417;DHT22;62605;49.432;8.680;2022-11-21T07:32:18;7.20;1.00
10417;DHT22;62605;49.432;8.680;2022-11-21T07:34:46;7.20;1.00
10417;DHT22;62605;49.432;8.680;2022-11-21T07:37:13;7.10;1.00
10417;DHT22;62605;49.432;8.680;2022-11-21T07:39:40;7.20;1.00
10417;DHT22;62605;49.432;8.680;2022-11-21T07:42:07;7.30;1.00
10417;DHT22;62605;49.432;8.680;2022-11-21T07:44:34;7.30;1.00
10417;DHT22;62605;49.432;8.680;2022-11-21T07:47:01;7.20;1.00
10417;DHT22;62605;49.432;8.680;2022-11-21T07:49:30;7.20;1.00
10417;DHT22;62605;49.432;8.680;2022-11-21T07:51:58;7.20;1.00
10417;DHT22;62605;49.432;8.680;2022-11-21T07:54:25;7.10;1.00
10417;DHT22;62605;49.432;8.680;2022-11-21T07:56:52;7.10;1.00
10417;DHT22;62605;49.432;8.680;2022-11-21T07:59:19;7.10;1.00
10417;DHT22;62605;49.432;8.680;2022-11-21T08:01:49;7.10;1.00
10417;DHT22;62605;49.432;8.680;2022-11-21T08:04:17;7.10;1.00
10417;DHT22;62605;49.432;8.680;2022-11-21T08:06:48;7.10;1.00
10417;DHT22;62605;49.432;8.680;2022-11-21T08:09:15;7.10;1.00
10417;DHT22;62605;49.432;8.680;2022-11-21T08:11:44;7.20;1.00
10417;DHT22;62605;49.432;8.680;2022-11-21T08:14:11;7.20;1.00
10417;DHT22;62605;49.432;8.680;2022-11-21T08:16:38;7.20;1.00
10417;DHT22;62605;49.432;8.680;2022-11-21T08:19:06;7.20;1.00
10417;DHT22;62605;49.432;8.680;2022-11-21T08:21:33;7.60;1.00
10417;DHT22;62605;49.432;8.680;2022-11-21T08:24:01;7.60;99.90
10417;DHT22;62605;49.432;8.680;2022-11-21T08:26:28;7.50;1.00
10417;DHT22;62605;49.432;8.680;2022-11-21T08:28:55;7.50;99.90
10417;DHT22;62605;49.432;8.680;2022-11-21T08:31:22;7.70;99.90
10417;DHT22;62605;49.432;8.680;2022-11-21T08:33:54;7.70;99.90
10417;DHT22;62605;49.432;8.680;2022-11-21T08:36:21;7.60;99.90
10417;DHT22;62605;49.432;8.680;2022-11-21T08:38:48;7.80;99.90
10417;DHT22;62605;49.432;8.680;2022-11-21T08:41:18;7.60;1.00
10417;DHT22;62605;49.432;8.680;2022-11-21T08:44:04;7.60;99.90
10417;DHT22;62605;49.432;8.680;2022-11-21T08:46:32;7.60;1.00
10417;DHT22;62605;49.432;8.680;2022-11-21T08:49:01;7.70;1.00
10417;DHT22;62605;49.432;8.680;2022-11-21T08:51:29;7.90;1.00
10417;DHT22;62605;49.432;8.680;2022-11-21T08:53:57;7.90;1.30
10417;DHT22;62605;49.432;8.680;2022-11-21T08:56:25;7.80;99.90
10417;DHT22;62605;49.432;8.680;2022-11-21T08:58:53;8.00;99.90
10417;DHT22;62605;49.432;8.680;2022-11-21T09:01:20;8.00;1.00
10417;DHT22;62605;49.432;8.680;2022-11-21T09:03:48;7.90;1.00
10417;DHT22;62605;49.432;8.680;2022-11-21T09:06:16;7.80;99.90
10417;DHT22;62605;49.432;8.680;2022-11-21T09:08:42;7.80;99.90
10417;DHT22;62605;49.432;8.680;2022-11-21T09:11:10;7.80;1.00
10417;DHT22;62605;49.432;8.680;2022-11-21T09:13:38;7.80;1.00
10417;DHT22;62605;49.432;8.680;2022-11-21T09:16:05;7.80;1.00
10417;DHT22;62605;49.432;8.680;2022-11-21T09:18:51;7.80;1.00
10417;DHT22;62605;49.432;8.680;2022-11-21T09:21:19;8.00;99.90
10417;DHT22;62605;49.432;8.680;2022-11-21T09:23:46;8.00;1.00
10417;DHT22;62605;49.432;8.680;2022-11-21T09:26:13;8.00;1.00
10417;DHT22;62605;49.432;8.680;2022-11-21T09:28:41;8.00;1.00
10417;DHT22;62605;49.432;8.680;2022-11-21T09:31:08;8.00;1.00
10417;DHT22;62605;49.432;8.680;2022-11-21T09:33:35;8.10;1.00
10417;DHT22;62605;49.432;8.680;2022-11-21T09:36:03;8.10;1.00
10417;DHT22;62605;49.432;8.680;2022-11-21T09:38:30;8.00;1.00
10417;DHT22;62605;49.432;8.680;2022-11-21T09:41:07;7.90;1.00
10417;DHT22;62605;49.432;8.680;2022-11-21T09:44:05;8.00;1.00
10417;DHT22;62605;49.432;8.680;2022-11-21T09:46:43;8.10;1.00
10417;DHT22;62605;49.432;8.680;2022-11-21T09:49:12;8.10;1.00
10417;DHT22;62605;49.432;8.680;2022-11-21T09:51:40;8.10;1.00
10417;DHT22;62605;49.432;8.680;2022-11-21T09:54:15;8.10;1.00
10417;DHT22;62605;49.432;8.680;2022-11-21T09:56:43;8.10;1.00
10417;DHT22;62605;49.432;8.680;2022-11-21T09:59:26;8.10;1.00
10417;DHT22;62605;49.432;8.680;2022-11-21T10:01:55;8.20;1.00
10417;DHT22;62605;49.432;8.680;2022-11-21T10:04:23;8.30;1.00
10417;DHT22;62605;49.432;8.680;2022-11-21T10:06:59;8.50;1.00
10417;DHT22;62605;49.432;8.680;2022-11-21T10:09:41;8.60;1.00
10417;DHT22;62605;49.432;8.680;2022-11-21T10:12:18;8.60;1.00
10417;DHT22;62605;49.432;8.680;2022-11-21T10:15:25;8.70;99.90
10417;DHT22;62605;49.432;8.680;2022-11-21T10:18:30;8.80;99.90
10417;DHT22;62605;49.432;8.680;2022-11-21T10:21:08;8.90;99.90
10417;DHT22;62605;49.432;8.680;2022-11-21T10:26:37;9.30;99.90
10417;DHT22;62605;49.432;8.680;2022-11-21T10:29:11;9.40;99.90
10417;DHT22;62605;49.432;8.680;2022-11-21T10:31:42;9.50;99.90
10417;DHT22;62605;49.432;8.680;2022-11-21T10:34:12;9.40;99.90
10417;DHT22;62605;49.432;8.680;2022-11-21T10:36:43;9.50;99.90
10417;DHT22;62605;49.432;8.680;2022-11-21T10:39:16;9.70;99.90
10417;DHT22;62605;49.432;8.680;2022-11-21T10:41:49;9.60;99.90
10417;DHT22;62605;49.432;8.680;2022-11-21T10:44:24;9.60;99.90
10417;DHT22;62605;49.432;8.680;2022-11-21T10:47:15;9.40;99.90
10417;DHT22;62605;49.432;8.680;2022-11-21T10:49:56;9.30;99.90
10417;DHT22;62605;49.432;8.680;2022-11-21T10:52:26;9.30;99.90
10417;DHT22;62605;49.432;8.680;2022-11-21T10:55:09;9.20;99.90
10417;DHT22;62605;49.432;8.680;2022-11-21T10:57:42;9.20;99.90
10417;DHT22;62605;49.432;8.680;2022-11-21T11:00:23;9.30;99.90
10417;DHT22;62605;49.432;8.680;2022-11-21T11:03:15;9.30;99.90
10417;DHT22;62605;49.432;8.680;2022-11-21T11:05:53;9.40;99.90
10417;DHT22;62605;49.432;8.680;2022-11-21T11:08:21;9.40;99.70
10417;DHT22;62605;49.432;8.680;2022-11-21T11:11:02;9.60;94.90
10417;DHT22;62605;49.432;8.680;2022-11-21T11:13:30;9.60;86.30
10417;DHT22;62605;49.432;8.680;2022-11-21T11:16:04;9.60;73.80
10417;DHT22;62605;49.432;8.680;2022-11-21T11:18:36;9.40;50.60
10417;DHT22;62605;49.432;8.680;2022-11-21T11:21:16;9.40;57.30
10417;DHT22;62605;49.432;8.680;2022-11-21T11:23:46;9.20;47.80
10417;DHT22;62605;49.432;8.680;2022-11-21T11:26:25;9.00;48.70
10417;DHT22;62605;49.432;8.680;2022-11-21T11:29:06;8.90;49.80
10417;DHT22;62605;49.432;8.680;2022-11-21T11:31:40;8.90;34.30
10417;DHT22;62605;49.432;8.680;2022-11-21T11:34:11;8.90;37.80
10417;DHT22;62605;49.432;8.680;2022-11-21T11:36:53;8.90;35.70
10417;DHT22;62605;49.432;8.680;2022-11-21T11:39:31;8.80;26.40
10417;DHT22;62605;49.432;8.680;2022-11-21T11:42:28;8.80;39.30
10417;DHT22;62605;49.432;8.680;2022-11-21T11:45:29;8.80;47.60
10417;DHT22;62605;49.432;8.680;2022-11-21T11:48:18;8.80;23.30
10417;DHT22;62605;49.432;8.680;2022-11-21T11:50:49;9.00;27.60
10417;DHT22;62605;49.432;8.680;2022-11-21T11:53:18;9.10;14.30
10417;DHT22;62605;49.432;8.680;2022-11-21T11:55:48;9.20;6.30
10417;DHT22;62605;49.432;8.680;2022-11-21T11:58:23;9.20;1.00
10417;DHT22;62605;49.432;8.680;2022-11-21T12:00:57;9.40;1.00
10417;DHT22;62605;49.432;8.680;2022-11-21T12:03:33;9.80;1.00
10417;DHT22;62605;49.432;8.680;2022-11-21T12:06:10;10.00;1.00
10417;DHT22;62605;49.432;8.680;2022-11-21T12:08:42;10.00;1.00
10417;DHT22;62605;49.432;8.680;2022-11-21T12:11:18;10.00;1.00
10417;DHT22;62605;49.432;8.680;2022-11-21T12:14:22;9.80;1.00
10417;DHT22;62605;49.432;8.680;2022-11-21T12:17:13;9.70;1.00
10417;DHT22;62605;49.432;8.680;2022-11-21T12:19:43;9.70;1.00
10417;DHT22;62605;49.432;8.680;2022-11-21T12:22:11;9.70;1.00
10417;DHT22;62605;49.432;8.680;2022-11-21T12:24:38;9.60;1.00
10417;DHT22;62605;49.432;8.680;2022-11-21T12:27:20;9.70;1.00
10417;DHT22;62605;49.432;8.680;2022-11-21T12:30:16;9.80;1.00
10417;DHT22;62605;49.432;8.680;2022-11-21T12:32:54;10.00;1.00
10417;DHT22;62605;49.432;8.680;2022-11-21T12:35:49;10.20;1.00
10417;DHT22;62605;49.432;8.680;2022-11-21T12:38:35;10.20;1.00
10417;DHT22;62605;49.432;8.680;2022-11-21T12:41:11;10.00;1.00
10417;DHT22;62605;49.432;8.680;2022-11-21T12:44:05;9.80;1.00
10417;DHT22;62605;49.432;8.680;2022-11-21T12:46:42;9.80;1.00
10417;DHT22;62605;49.432;8.680;2022-11-21T12:49:21;9.80;1.00
10417;DHT22;62605;49.432;8.680;2022-11-21T12:52:18;9.80;1.00
10417;DHT22;62605;49.432;8.680;2022-11-21T12:55:19;9.70;1.00
10417;DHT22;62605;49.432;8.680;2022-11-21T12:58:04;9.70;1.00
10417;DHT22;62605;49.432;8.680;2022-11-21T13:00:47;9.70;1.00
10417;DHT22;62605;49.432;8.680;2022-11-21T13:03:41;9.60;1.00
10417;DHT22;62605;49.432;8.680;2022-11-21T13:06:14;9.70;1.00
10417;DHT22;62605;49.432;8.680;2022-11-21T13:08:44;9.80;1.00
10417;DHT22;62605;49.432;8.680;2022-11-21T13:11:24;9.70;1.00
10417;DHT22;62605;49.432;8.680;2022-11-21T13:14:16;9.70;1.00
10417;DHT22;62605;49.432;8.680;2022-11-21T13:16:50;9.60;1.00
10417;DHT22;62605;49.432;8.680;2022-11-21T13:19:30;9.60;1.00
10417;DHT22;62605;49.432;8.680;2022-11-21T13:21:58;9.60;1.00
10417;DHT22;62605;49.432;8.680;2022-11-21T13:24:54;9.60;1.00
10417;DHT22;62605;49.432;8.680;2022-11-21T13:27:35;9.60;1.00
10417;DHT22;62605;49.432;8.680;2022-11-21T13:30:32;9.60;1.00
10417;DHT22;62605;49.432;8.680;2022-11-21T13:33:00;9.60;1.00
10417;DHT22;62605;49.432;8.680;2022-11-21T13:38:31;9.80;1.00
10417;DHT22;62605;49.432;8.680;2022-11-21T13:44:52;9.90;1.00
10417;DHT22;62605;49.432;8.680;2022-11-21T13:53:55;10.10;1.00
10417;DHT22;62605;49.432;8.680;2022-11-21T13:56:37;10.10;1.00
10417;DHT22;62605;49.432;8.680;2022-11-21T13:59:27;10.10;1.00
10417;DHT22;62605;49.432;8.680;2022-11-21T14:05:03;10.10;1.00
10417;DHT22;62605;49.432;8.680;2022-11-21T14:07:34;10.10;1.00
10417;DHT22;62605;49.432;8.680;2022-11-21T14:10:04;10.10;1.00
10417;DHT22;62605;49.432;8.680;2022-11-21T14:12:34;10.10;1.00
10417;DHT22;62605;49.432;8.680;2022-11-21T14:15:19;9.90;1.00
10417;DHT22;62605;49.432;8.680;2022-11-21T14:17:50;9.90;1.00
10417;DHT22;62605;49.432;8.680;2022-11-21T14:20:21;9.80;1.00
10417;DHT22;62605;49.432;8.680;2022-11-21T14:23:00;9.60;1.00
10417;DHT22;62605;49.432;8.680;2022-11-21T14:25:41;9.80;1.00
10417;DHT22;62605;49.432;8.680;2022-11-21T14:28:11;9.70;1.00
10417;DHT22;62605;49.432;8.680;2022-11-21T14:30:41;9.70;1.00
10417;DHT22;62605;49.432;8.680;2022-11-21T14:33:25;9.50;1.00
10417;DHT22;62605;49.432;8.680;2022-11-21T14:35:56;9.60;1.00
10417;DHT22;62605;49.432;8.680;2022-11-21T14:38:23;9.50;1.00
10417;DHT22;62605;49.432;8.680;2022-11-21T14:41:23;9.30;1.00
10417;DHT22;62605;49.432;8.680;2022-11-21T14:44:13;9.10;1.00
10417;DHT22;62605;49.432;8.680;2022-11-21T14:46:42;9.30;1.00
10417;DHT22;62605;49.432;8.680;2022-11-21T14:49:22;9.60;1.00
10417;DHT22;62605;49.432;8.680;2022-11-21T14:51:52;9.60;1.00
10417;DHT22;62605;49.432;8.680;2022-11-21T14:54:26;9.70;1.00
10417;DHT22;62605;49.432;8.680;2022-11-21T14:56:57;9.80;1.00
10417;DHT22;62605;49.432;8.680;2022-11-21T14:59:27;9.90;1.00
10417;DHT22;62605;49.432;8.680;2022-11-21T15:01:58;9.70;1.00
10417;DHT22;62605;49.432;8.680;2022-11-21T15:04:31;9.40;1.00
10417;DHT22;62605;49.432;8.680;2022-11-21T15:07:00;9.30;1.00
10417;DHT22;62605;49.432;8.680;2022-11-21T15:09:27;9.10;1.00
10417;DHT22;62605;49.432;8.680;2022-11-21T15:12:00;9.10;1.00
10417;DHT22;62605;49.432;8.680;2022-11-21T15:14:32;9.00;1.00
10417;DHT22;62605;49.432;8.680;2022-11-21T15:17:01;9.00;1.00
10417;DHT22;62605;49.432;8.680;2022-11-21T15:19:31;8.80;1.00
10417;DHT22;62605;49.432;8.680;2022-11-21T15:22:00;8.60;1.00
10417;DHT22;62605;49.432;8.680;2022-11-21T15:24:37;8.40;1.00
10417;DHT22;62605;49.432;8.680;2022-11-21T15:27:28;8.50;1.00
10417;DHT22;62605;49.432;8.680;2022-11-21T15:30:20;8.40;1.00
10417;DHT22;62605;49.432;8.680;2022-11-21T15:33:07;8.40;1.00
10417;DHT22;62605;49.432;8.680;2022-11-21T15:35:45;8.30;1.00
10417;DHT22;62605;49.432;8.680;2022-11-21T15:38:21;8.40;1.00
10417;DHT22;62605;49.432;8.680;2022-11-21T15:40:56;8.30;1.00
10417;DHT22;62605;49.432;8.680;2022-11-21T15:43:38;8.30;1.00
10417;DHT22;62605;49.432;8.680;2022-11-21T15:46:16;8.40;1.00
10417;DHT22;62605;49.432;8.680;2022-11-21T15:48:45;8.30;1.00
10417;DHT22;62605;49.432;8.680;2022-11-21T15:51:14;8.60;1.00
10417;DHT22;62605;49.432;8.680;2022-11-21T15:53:42;8.60;1.00
10417;DHT22;62605;49.432;8.680;2022-11-21T15:56:10;8.60;1.00
10417;DHT22;62605;49.432;8.680;2022-11-21T15:58:38;8.80;1.00
10417;DHT22;62605;49.432;8.680;2022-11-21T16:01:09;8.70;1.00
10417;DHT22;62605;49.432;8.680;2022-11-21T16:03:37;8.70;1.00
10417;DHT22;62605;49.432;8.680;2022-11-21T16:06:04;8.60;1.00
10417;DHT22;62605;49.432;8.680;2022-11-21T16:08:33;8.80;1.00
10417;DHT22;62605;49.432;8.680;2022-11-21T16:11:00;8.80;1.00
10417;DHT22;62605;49.432;8.680;2022-11-21T16:13:27;8.90;1.00
10417;DHT22;62605;49.432;8.680;2022-11-21T16:15:54;8.70;1.00
10417;DHT22;62605;49.432;8.680;2022-11-21T16:18:21;8.80;1.00
10417;DHT22;62605;49.432;8.680;2022-11-21T16:20:48;8.60;1.00
10417;DHT22;62605;49.432;8.680;2022-11-21T16:23:15;8.70;1.00
10417;DHT22;62605;49.432;8.680;2022-11-21T16:25:52;8.60;1.00
10417;DHT22;62605;49.432;8.680;2022-11-21T16:28:20;8.40;1.00
10417;DHT22;62605;49.432;8.680;2022-11-21T16:30:47;8.30;1.00
10417;DHT22;62605;49.432;8.680;2022-11-21T16:33:15;8.20;1.00
10417;DHT22;62605;49.432;8.680;2022-11-21T16:35:42;8.30;1.00
10417;DHT22;62605;49.432;8.680;2022-11-21T16:38:09;8.50;1.00
10417;DHT22;62605;49.432;8.680;2022-11-21T16:40:37;8.30;1.00
10417;DHT22;62605;49.432;8.680;2022-11-21T16:43:11;8.10;1.00